createdAt,value
2019-04-05T00:00:04.290Z,0.00
2019-04-05T00:01:04.285Z,0.00
2019-04-05T00:02:04.266Z,0.00
2019-04-05T00:03:04.252Z,0.00
2019-04-05T00:04:04.237Z,0.00
2019-04-05T00:05:04.239Z,0.00
2019-04-05T00:06:04.255Z,0.00
2019-04-05T00:07:04.205Z,0.00
2019-04-05T00:08:04.191Z,0.00
2019-04-05T00:09:04.187Z,0.00
2019-04-05T00:10:04.177Z,0.00
2019-04-05T00:11:04.176Z,0.00
2019-04-05T00:12:04.156Z,0.00
2019-04-05T00:13:04.136Z,0.00
2019-04-05T00:14:04.132Z,0.00
2019-04-05T00:15:14.548Z,0.00
2019-04-05T00:16:05.160Z,0.00
2019-04-05T00:17:04.128Z,0.00
2019-04-05T00:18:04.075Z,0.00
2019-04-05T00:19:10.154Z,0.00
2019-04-05T00:20:04.056Z,0.00
2019-04-05T00:21:04.045Z,0.00
2019-04-05T00:22:04.034Z,0.00
2019-04-05T00:23:04.066Z,0.00
2019-04-05T00:24:04.007Z,0.00
2019-04-05T00:25:04.003Z,0.00
2019-04-05T00:26:03.989Z,0.00
2019-04-05T00:27:03.974Z,0.00
2019-04-05T00:28:03.972Z,0.00
2019-04-05T00:29:03.995Z,0.00
2019-04-05T00:30:03.944Z,0.00
2019-04-05T00:31:03.933Z,0.00
2019-04-05T00:32:03.917Z,0.00
2019-04-05T00:33:03.907Z,0.00
2019-04-05T00:34:03.901Z,0.00
2019-04-05T00:35:03.905Z,0.00
2019-04-05T00:36:03.875Z,0.00
2019-04-05T00:37:03.872Z,0.00
2019-04-05T00:38:03.847Z,0.00
2019-04-05T00:39:03.837Z,0.00
2019-04-05T00:40:03.825Z,0.00
2019-04-05T00:41:03.823Z,0.00
2019-04-05T00:42:03.812Z,0.00
2019-04-05T00:43:03.792Z,0.00
2019-04-05T00:44:03.797Z,0.00
2019-04-05T00:45:03.769Z,0.00
2019-04-05T00:46:03.776Z,0.00
2019-04-05T00:47:03.745Z,0.00
2019-04-05T00:48:03.735Z,0.00
2019-04-05T00:49:03.726Z,0.00
2019-04-05T00:50:03.738Z,0.00
2019-04-05T00:51:10.013Z,0.00
2019-04-05T00:52:03.727Z,0.00
2019-04-05T00:53:03.684Z,0.00
2019-04-05T00:54:03.672Z,0.00
2019-04-05T00:55:03.658Z,0.00
2019-04-05T00:56:03.641Z,0.00
2019-04-05T00:57:03.630Z,0.00
2019-04-05T00:58:03.640Z,0.00
2019-04-05T00:59:03.611Z,0.00
2019-04-05T01:00:03.600Z,0.00
2019-04-05T01:01:03.592Z,0.00
2019-04-05T01:02:03.577Z,0.00
2019-04-05T01:03:03.560Z,0.00
2019-04-05T01:04:03.592Z,0.00
2019-04-05T01:05:03.538Z,0.00
2019-04-05T01:06:03.526Z,0.00
2019-04-05T01:07:03.519Z,0.00
2019-04-05T01:08:03.506Z,0.00
2019-04-05T01:09:03.494Z,0.00
2019-04-05T01:10:03.511Z,0.00
2019-04-05T01:11:03.472Z,0.00
2019-04-05T01:12:03.459Z,0.00
2019-04-05T01:13:03.448Z,0.00
2019-04-05T01:14:03.444Z,0.00
2019-04-05T01:15:03.465Z,0.00
2019-04-05T01:16:03.416Z,0.00
2019-04-05T01:17:03.407Z,0.00
2019-04-05T01:18:03.395Z,0.00
2019-04-05T01:19:04.151Z,0.00
2019-04-05T01:20:03.374Z,0.00
2019-04-05T01:21:03.396Z,0.00
2019-04-05T01:22:03.344Z,0.00
2019-04-05T01:23:09.725Z,0.00
2019-04-05T01:24:03.327Z,0.00
2019-04-05T01:25:03.325Z,0.00
2019-04-05T01:26:03.296Z,0.00
2019-04-05T01:27:03.299Z,0.00
2019-04-05T01:28:03.282Z,0.00
2019-04-05T01:29:03.264Z,0.00
2019-04-05T01:30:03.256Z,0.00
2019-04-05T01:31:03.249Z,0.00
2019-04-05T01:32:03.270Z,0.00
2019-04-05T01:33:03.218Z,0.00
2019-04-05T01:34:05.424Z,0.00
2019-04-05T01:35:03.193Z,0.00
2019-04-05T01:36:03.183Z,0.00
2019-04-05T01:37:03.176Z,0.00
2019-04-05T01:38:03.199Z,0.00
2019-04-05T01:39:03.154Z,0.00
2019-04-05T01:40:03.138Z,0.00
2019-04-05T01:41:03.126Z,0.00
2019-04-05T01:42:03.117Z,0.00
2019-04-05T01:43:03.110Z,0.00
2019-04-05T01:44:03.131Z,0.00
2019-04-05T01:45:03.081Z,0.00
2019-04-05T01:46:03.069Z,0.00
2019-04-05T01:47:03.059Z,0.00
2019-04-05T01:48:03.044Z,0.00
2019-04-05T01:49:03.032Z,0.00
2019-04-05T01:50:03.032Z,0.00
2019-04-05T01:51:03.010Z,0.00
2019-04-05T01:52:03.007Z,0.00
2019-04-05T01:53:02.995Z,0.00
2019-04-05T01:54:02.977Z,0.00
2019-04-05T01:55:10.060Z,0.00
2019-04-05T01:56:02.958Z,0.00
2019-04-05T01:57:02.943Z,0.00
2019-04-05T01:58:02.936Z,0.00
2019-04-05T01:59:02.918Z,0.00
2019-04-05T02:00:02.913Z,0.00
2019-04-05T02:01:02.937Z,0.00
2019-04-05T02:02:02.889Z,0.00
2019-04-05T02:03:02.874Z,0.00
2019-04-05T02:04:02.860Z,0.00
2019-04-05T02:05:02.851Z,0.00
2019-04-05T02:06:02.845Z,0.00
2019-04-05T02:07:02.867Z,0.00
2019-04-05T02:08:02.819Z,0.00
2019-04-05T02:09:02.811Z,0.00
2019-04-05T02:10:02.796Z,0.00
2019-04-05T02:11:02.780Z,0.00
2019-04-05T02:12:02.776Z,0.00
2019-04-05T02:13:02.951Z,0.00
2019-04-05T02:14:02.749Z,0.00
2019-04-05T02:15:02.743Z,0.00
2019-04-05T02:16:06.470Z,0.00
2019-04-05T02:17:02.712Z,0.00
2019-04-05T02:18:02.706Z,0.00
2019-04-05T02:19:02.739Z,0.00
2019-04-05T02:20:02.679Z,0.00
2019-04-05T02:21:02.669Z,0.00
2019-04-05T02:22:02.663Z,0.00
2019-04-05T02:23:02.650Z,0.00
2019-04-05T02:24:02.637Z,0.00
2019-04-05T02:25:02.662Z,0.00
2019-04-05T02:26:02.609Z,0.00
2019-04-05T02:27:08.694Z,0.00
2019-04-05T02:28:02.587Z,0.00
2019-04-05T02:29:02.579Z,0.00
2019-04-05T02:30:02.580Z,0.00
2019-04-05T02:31:02.561Z,0.00
2019-04-05T02:32:02.541Z,0.00
2019-04-05T02:33:02.537Z,0.00
2019-04-05T02:34:02.522Z,0.00
2019-04-05T02:35:02.532Z,0.00
2019-04-05T02:36:02.542Z,0.00
2019-04-05T02:37:02.487Z,0.00
2019-04-05T02:38:02.475Z,0.00
2019-04-05T02:39:02.463Z,0.00
2019-04-05T02:40:02.457Z,0.00
2019-04-05T02:41:02.443Z,0.00
2019-04-05T02:42:02.472Z,0.00
2019-04-05T02:43:02.417Z,0.00
2019-04-05T02:44:02.414Z,0.00
2019-04-05T02:45:02.436Z,0.00
2019-04-05T02:46:02.385Z,0.00
2019-04-05T02:47:02.369Z,0.00
2019-04-05T02:48:02.359Z,0.00
2019-04-05T02:49:02.349Z,0.00
2019-04-05T02:50:02.363Z,0.00
2019-04-05T02:51:02.378Z,0.00
2019-04-05T02:52:02.316Z,0.00
2019-04-05T02:53:02.306Z,0.00
2019-04-05T02:54:02.290Z,0.00
2019-04-05T02:55:02.279Z,0.00
2019-04-05T02:56:03.164Z,0.00
2019-04-05T02:57:02.274Z,0.00
2019-04-05T02:58:02.249Z,0.00
2019-04-05T02:59:08.683Z,0.00
2019-04-05T03:00:02.225Z,0.00
2019-04-05T03:01:02.214Z,0.00
2019-04-05T03:02:02.203Z,0.00
2019-04-05T03:03:02.218Z,0.00
2019-04-05T03:04:02.181Z,0.00
2019-04-05T03:05:02.179Z,0.00
2019-04-05T03:06:02.157Z,0.00
2019-04-05T03:07:02.189Z,0.00
2019-04-05T03:08:02.132Z,0.00
2019-04-05T03:09:02.116Z,0.00
2019-04-05T03:10:02.106Z,0.00
2019-04-05T03:11:02.118Z,0.00
2019-04-05T03:12:02.082Z,0.00
2019-04-05T03:13:02.110Z,0.00
2019-04-05T03:14:02.064Z,0.00
2019-04-05T03:15:02.056Z,0.00
2019-04-05T03:16:02.071Z,0.00
2019-04-05T03:17:02.037Z,0.00
2019-04-05T03:18:02.017Z,0.00
2019-04-05T03:19:02.010Z,0.00
2019-04-05T03:20:01.994Z,0.00
2019-04-05T03:21:01.981Z,0.00
2019-04-05T03:22:01.972Z,0.00
2019-04-05T03:23:01.959Z,0.00
2019-04-05T03:24:02.065Z,0.00
2019-04-05T03:25:01.941Z,0.00
2019-04-05T03:26:01.925Z,0.00
2019-04-05T03:27:01.912Z,0.00
2019-04-05T03:28:01.901Z,0.00
2019-04-05T03:29:01.893Z,0.00
2019-04-05T03:30:02.116Z,0.00
2019-04-05T03:31:08.254Z,0.00
2019-04-05T03:32:01.853Z,0.00
2019-04-05T03:33:01.850Z,0.00
2019-04-05T03:34:01.830Z,0.00
2019-04-05T03:35:01.898Z,0.00
2019-04-05T03:36:01.806Z,0.00
2019-04-05T03:37:01.801Z,0.00
2019-04-05T03:38:01.784Z,0.00
2019-04-05T03:39:01.783Z,0.00
2019-04-05T03:40:01.773Z,0.00
2019-04-05T03:41:01.786Z,0.00
2019-04-05T03:42:01.747Z,0.00
2019-04-05T03:43:01.730Z,0.00
2019-04-05T03:44:01.729Z,0.00
2019-04-05T03:45:01.708Z,0.00
2019-04-05T03:46:01.695Z,0.00
2019-04-05T03:47:01.721Z,0.00
2019-04-05T03:48:01.676Z,0.00
2019-04-05T03:49:01.743Z,0.00
2019-04-05T03:50:01.679Z,0.00
2019-04-05T03:51:01.644Z,0.00
2019-04-05T03:52:01.630Z,0.00
2019-04-05T03:53:01.628Z,0.00
2019-04-05T03:54:01.607Z,0.00
2019-04-05T03:55:01.591Z,0.00
2019-04-05T03:56:01.583Z,0.00
2019-04-05T03:57:01.575Z,0.00
2019-04-05T03:58:01.572Z,0.00
2019-04-05T03:59:01.547Z,0.00
2019-04-05T04:00:01.543Z,0.00
2019-04-05T04:01:01.521Z,0.00
2019-04-05T04:02:01.516Z,0.00
2019-04-05T04:03:08.128Z,0.00
2019-04-05T04:04:01.491Z,0.00
2019-04-05T04:05:01.488Z,0.00
2019-04-05T04:06:01.475Z,0.00
2019-04-05T04:07:01.474Z,0.00
2019-04-05T04:08:01.447Z,0.00
2019-04-05T04:09:01.445Z,0.00
2019-04-05T04:10:01.469Z,5.62
2019-04-05T04:11:01.425Z,5.62
2019-04-05T04:12:01.396Z,5.62
2019-04-05T04:13:01.385Z,5.62
2019-04-05T04:14:01.403Z,5.62
2019-04-05T04:15:01.366Z,5.62
2019-04-05T04:16:01.358Z,5.62
2019-04-05T04:17:12.204Z,5.62
2019-04-05T04:18:02.336Z,5.62
2019-04-05T04:19:01.320Z,5.62
2019-04-05T04:20:01.343Z,5.62
2019-04-05T04:21:01.301Z,5.62
2019-04-05T04:22:01.294Z,5.62
2019-04-05T04:23:01.271Z,5.62
2019-04-05T04:24:01.261Z,5.62
2019-04-05T04:25:01.265Z,5.62
2019-04-05T04:26:01.248Z,5.62
2019-04-05T04:27:01.231Z,5.62
2019-04-05T04:28:01.215Z,5.62
2019-04-05T04:29:01.205Z,5.62
2019-04-05T04:30:01.458Z,5.62
2019-04-05T04:31:01.226Z,5.62
2019-04-05T04:32:01.171Z,5.62
2019-04-05T04:33:01.168Z,5.62
2019-04-05T04:34:01.150Z,11.25
2019-04-05T04:35:07.530Z,11.25
2019-04-05T04:36:01.134Z,11.25
2019-04-05T04:37:01.155Z,11.25
2019-04-05T04:38:01.107Z,11.25
2019-04-05T04:39:01.098Z,11.25
2019-04-05T04:40:01.090Z,11.25
2019-04-05T04:41:01.069Z,11.25
2019-04-05T04:42:01.057Z,16.88
2019-04-05T04:43:01.088Z,16.88
2019-04-05T04:44:01.037Z,16.88
2019-04-05T04:45:11.346Z,11.25
2019-04-05T04:46:02.011Z,16.88
2019-04-05T04:47:01.002Z,11.25
2019-04-05T04:48:01.092Z,16.88
2019-04-05T04:49:01.005Z,16.88
2019-04-05T04:50:00.969Z,16.88
2019-04-05T04:51:00.966Z,16.88
2019-04-05T04:52:00.948Z,16.88
2019-04-05T04:53:00.934Z,16.88
2019-04-05T04:54:00.921Z,16.88
2019-04-05T04:55:00.950Z,11.25
2019-04-05T04:56:00.897Z,11.25
2019-04-05T04:57:00.893Z,11.25
2019-04-05T04:58:00.879Z,11.25
2019-04-05T04:59:00.873Z,11.25
2019-04-05T05:00:00.854Z,11.25
2019-04-05T05:01:00.852Z,11.25
2019-04-05T05:02:00.851Z,11.25
2019-04-05T05:03:00.824Z,11.25
2019-04-05T05:04:00.805Z,11.25
2019-04-05T05:05:00.794Z,11.25
2019-04-05T05:06:00.792Z,11.25
2019-04-05T05:07:07.163Z,11.25
2019-04-05T05:08:00.764Z,11.25
2019-04-05T05:09:00.756Z,11.25
2019-04-05T05:10:03.203Z,11.25
2019-04-05T05:11:00.741Z,11.25
2019-04-05T05:12:00.757Z,11.25
2019-04-05T05:13:00.705Z,11.25
2019-04-05T05:14:00.695Z,11.25
2019-04-05T05:15:00.694Z,11.25
2019-04-05T05:16:00.673Z,16.88
2019-04-05T05:17:00.662Z,16.88
2019-04-05T05:18:00.662Z,16.88
2019-04-05T05:19:00.646Z,16.88
2019-04-05T05:20:00.626Z,16.88
2019-04-05T05:21:00.612Z,16.88
2019-04-05T05:22:00.603Z,22.50
2019-04-05T05:23:00.634Z,28.12
2019-04-05T05:24:00.584Z,33.75
2019-04-05T05:25:00.574Z,33.75
2019-04-05T05:26:00.554Z,39.38
2019-04-05T05:27:00.543Z,45.00
2019-04-05T05:28:00.532Z,45.00
2019-04-05T05:29:00.578Z,56.25
2019-04-05T05:30:00.524Z,56.25
2019-04-05T05:31:00.498Z,61.88
2019-04-05T05:32:00.494Z,67.50
2019-04-05T05:33:00.480Z,67.50
2019-04-05T05:34:00.469Z,67.50
2019-04-05T05:35:02.298Z,73.12
2019-04-05T05:36:00.443Z,73.12
2019-04-05T05:37:00.435Z,73.12
2019-04-05T05:38:00.420Z,73.12
2019-04-05T05:39:06.795Z,73.12
2019-04-05T05:40:00.396Z,73.12
2019-04-05T05:41:00.427Z,78.75
2019-04-05T05:42:00.372Z,78.75
2019-04-05T05:43:00.363Z,78.75
2019-04-05T05:44:00.350Z,78.75
2019-04-05T05:45:00.336Z,78.75
2019-04-05T05:46:00.331Z,78.75
2019-04-05T05:47:00.354Z,78.75
2019-04-05T05:48:00.307Z,78.75
2019-04-05T05:49:00.299Z,78.75
2019-04-05T05:50:00.283Z,78.75
2019-04-05T05:51:00.275Z,73.12
2019-04-05T05:52:00.259Z,73.12
2019-04-05T05:53:00.286Z,73.12
2019-04-05T05:54:00.240Z,67.50
2019-04-05T05:55:00.226Z,67.50
2019-04-05T05:56:00.214Z,61.88
2019-04-05T05:57:00.205Z,61.88
2019-04-05T05:58:00.191Z,56.25
2019-04-05T05:59:00.195Z,50.62
2019-04-05T06:00:00.503Z,50.62
2019-04-05T06:01:00.155Z,45.00
2019-04-05T06:02:00.142Z,45.00
2019-04-05T06:03:00.155Z,39.38
2019-04-05T06:04:00.137Z,39.38
2019-04-05T06:05:00.116Z,39.38
2019-04-05T06:06:04.645Z,39.38
2019-04-05T06:07:00.090Z,33.75
2019-04-05T06:08:00.994Z,33.75
2019-04-05T06:09:00.074Z,28.12
2019-04-05T06:10:00.105Z,33.75
2019-04-05T06:11:06.136Z,28.12
2019-04-05T06:12:00.034Z,33.75
2019-04-05T06:13:00.020Z,39.38
2019-04-05T06:14:00.009Z,45.00
2019-04-05T06:15:00.060Z,45.00
2019-04-05T06:15:59.990Z,50.62
2019-04-05T06:16:59.980Z,56.25
2019-04-05T06:18:04.978Z,56.25
2019-04-05T06:19:00.950Z,61.88
2019-04-05T06:19:59.941Z,61.88
2019-04-05T06:20:59.936Z,67.50
2019-04-05T06:21:59.917Z,67.50
2019-04-05T06:22:59.911Z,67.50
2019-04-05T06:23:59.896Z,67.50
2019-04-05T06:24:59.886Z,73.12
2019-04-05T06:25:59.913Z,73.12
2019-04-05T06:26:59.859Z,73.12
2019-04-05T06:28:00.082Z,73.12
2019-04-05T06:28:59.840Z,73.12
2019-04-05T06:29:59.822Z,73.12
2019-04-05T06:30:59.817Z,73.12
2019-04-05T06:31:59.845Z,67.50
2019-04-05T06:32:59.797Z,67.50
2019-04-05T06:33:59.783Z,67.50
2019-04-05T06:34:59.774Z,61.88
2019-04-05T06:35:59.765Z,61.88
2019-04-05T06:36:59.747Z,45.00
2019-04-05T06:37:59.747Z,61.88
2019-04-05T06:38:59.721Z,61.88
2019-04-05T06:39:59.712Z,56.25
2019-04-05T06:40:59.704Z,56.25
2019-04-05T06:41:59.688Z,56.25
2019-04-05T06:43:06.971Z,56.25
2019-04-05T06:43:59.675Z,56.25
2019-04-05T06:44:59.657Z,56.25
2019-04-05T06:45:59.667Z,50.62
2019-04-05T06:46:59.632Z,50.62
2019-04-05T06:47:59.623Z,50.62
2019-04-05T06:48:59.650Z,50.62
2019-04-05T06:49:59.597Z,50.62
2019-04-05T06:50:59.585Z,50.62
2019-04-05T06:51:59.577Z,45.00
2019-04-05T06:52:59.561Z,45.00
2019-04-05T06:53:59.551Z,45.00
2019-04-05T06:54:59.580Z,45.00
2019-04-05T06:56:00.226Z,45.00
2019-04-05T06:56:59.519Z,39.38
2019-04-05T06:57:59.507Z,39.38
2019-04-05T06:58:59.502Z,39.38
2019-04-05T06:59:59.515Z,39.38
2019-04-05T07:00:59.483Z,39.38
2019-04-05T07:01:59.456Z,33.75
2019-04-05T07:02:59.443Z,33.75
2019-04-05T07:03:59.463Z,33.75
2019-04-05T07:04:59.422Z,33.75
2019-04-05T07:05:59.452Z,33.75
2019-04-05T07:06:59.407Z,33.75
2019-04-05T07:07:59.391Z,33.75
2019-04-05T07:08:59.436Z,33.75
2019-04-05T07:09:59.371Z,33.75
2019-04-05T07:10:59.370Z,33.75
2019-04-05T07:11:59.383Z,33.75
2019-04-05T07:12:59.390Z,33.75
2019-04-05T07:13:59.323Z,28.12
2019-04-05T07:15:05.701Z,22.50
2019-04-05T07:15:59.295Z,28.12
2019-04-05T07:16:59.292Z,28.12
2019-04-05T07:17:59.282Z,22.50
2019-04-05T07:18:59.260Z,28.12
2019-04-05T07:19:59.255Z,28.12
2019-04-05T07:20:59.243Z,22.50
2019-04-05T07:21:59.242Z,22.50
2019-04-05T07:22:59.256Z,22.50
2019-04-05T07:23:59.206Z,22.50
2019-04-05T07:24:59.193Z,22.50
2019-04-05T07:25:59.187Z,22.50
2019-04-05T07:26:59.178Z,22.50
2019-04-05T07:27:59.166Z,22.50
2019-04-05T07:28:59.189Z,22.50
2019-04-05T07:29:59.141Z,22.50
2019-04-05T07:30:59.124Z,22.50
2019-04-05T07:31:59.113Z,16.88
2019-04-05T07:32:59.106Z,16.88
2019-04-05T07:33:59.089Z,16.88
2019-04-05T07:34:59.126Z,16.88
2019-04-05T07:35:59.071Z,16.88
2019-04-05T07:36:59.068Z,16.88
2019-04-05T07:37:59.054Z,16.88
2019-04-05T07:38:59.034Z,16.88
2019-04-05T07:39:59.029Z,16.88
2019-04-05T07:40:59.023Z,16.88
2019-04-05T07:41:59.002Z,16.88
2019-04-05T07:42:58.993Z,16.88
2019-04-05T07:43:58.979Z,16.88
2019-04-05T07:44:59.006Z,16.88
2019-04-05T07:45:58.957Z,16.88
2019-04-05T07:47:05.039Z,22.50
2019-04-05T07:47:58.930Z,22.50
2019-04-05T07:48:58.919Z,22.50
2019-04-05T07:49:58.910Z,22.50
2019-04-05T07:50:58.940Z,22.50
2019-04-05T07:51:58.891Z,16.88
2019-04-05T07:52:58.877Z,16.88
2019-04-05T07:53:58.867Z,16.88
2019-04-05T07:54:58.853Z,16.88
2019-04-05T07:55:58.839Z,16.88
2019-04-05T07:56:58.838Z,16.88
2019-04-05T07:57:58.823Z,16.88
2019-04-05T07:58:58.814Z,16.88
2019-04-05T07:59:58.794Z,16.88
2019-04-05T08:00:58.788Z,16.88
2019-04-05T08:01:58.822Z,16.88
2019-04-05T08:02:58.759Z,16.88
2019-04-05T08:03:58.753Z,16.88
2019-04-05T08:04:58.737Z,16.88
2019-04-05T08:05:58.728Z,16.88
2019-04-05T08:06:58.730Z,16.88
2019-04-05T08:07:58.776Z,16.88
2019-04-05T08:08:58.693Z,16.88
2019-04-05T08:09:58.687Z,16.88
2019-04-05T08:10:58.727Z,16.88
2019-04-05T08:11:58.661Z,16.88
2019-04-05T08:12:58.649Z,16.88
2019-04-05T08:13:58.647Z,16.88
2019-04-05T08:14:58.628Z,16.88
2019-04-05T08:16:01.216Z,16.88
2019-04-05T08:16:58.609Z,16.88
2019-04-05T08:17:58.588Z,16.88
2019-04-05T08:19:04.720Z,16.88
2019-04-05T08:19:58.579Z,16.88
2019-04-05T08:20:58.569Z,16.88
2019-04-05T08:21:58.546Z,16.88
2019-04-05T08:22:58.535Z,16.88
2019-04-05T08:23:58.521Z,16.88
2019-04-05T08:24:58.559Z,16.88
2019-04-05T08:25:58.497Z,16.88
2019-04-05T08:26:58.488Z,16.88
2019-04-05T08:27:58.479Z,16.88
2019-04-05T08:28:58.463Z,16.88
2019-04-05T08:29:58.450Z,16.88
2019-04-05T08:30:58.466Z,16.88
2019-04-05T08:31:58.430Z,16.88
2019-04-05T08:32:58.420Z,16.88
2019-04-05T08:33:58.411Z,16.88
2019-04-05T08:34:58.396Z,16.88
2019-04-05T08:35:58.389Z,16.88
2019-04-05T08:36:58.416Z,16.88
2019-04-05T08:37:58.360Z,16.88
2019-04-05T08:38:58.352Z,16.88
2019-04-05T08:39:58.337Z,16.88
2019-04-05T08:40:58.328Z,16.88
2019-04-05T08:41:58.320Z,16.88
2019-04-05T08:42:58.344Z,16.88
2019-04-05T08:44:00.210Z,16.88
2019-04-05T08:44:58.288Z,16.88
2019-04-05T08:45:58.270Z,16.88
2019-04-05T08:46:58.266Z,16.88
2019-04-05T08:47:58.247Z,16.88
2019-04-05T08:49:10.110Z,16.88
2019-04-05T08:49:59.255Z,16.88
2019-04-05T08:51:05.222Z,16.88
2019-04-05T08:51:58.210Z,16.88
2019-04-05T08:52:58.193Z,16.88
2019-04-05T08:53:58.181Z,16.88
2019-04-05T08:54:58.212Z,16.88
2019-04-05T08:55:58.164Z,16.88
2019-04-05T08:56:58.149Z,16.88
2019-04-05T08:57:58.142Z,16.88
2019-04-05T08:58:58.129Z,16.88
2019-04-05T08:59:58.119Z,16.88
2019-04-05T09:00:58.117Z,16.88
2019-04-05T09:01:58.094Z,16.88
2019-04-05T09:02:58.677Z,16.88
2019-04-05T09:03:58.078Z,16.88
2019-04-05T09:04:58.067Z,16.88
2019-04-05T09:05:58.097Z,16.88
2019-04-05T09:06:58.038Z,16.88
2019-04-05T09:07:58.033Z,16.88
2019-04-05T09:08:58.019Z,16.88
2019-04-05T09:09:58.005Z,16.88
2019-04-05T09:10:57.991Z,16.88
2019-04-05T09:11:58.021Z,16.88
2019-04-05T09:12:57.968Z,16.88
2019-04-05T09:13:57.957Z,16.88
2019-04-05T09:14:57.951Z,16.88
2019-04-05T09:15:57.940Z,16.88
2019-04-05T09:16:57.924Z,16.88
2019-04-05T09:17:57.922Z,16.88
2019-04-05T09:18:57.909Z,16.88
2019-04-05T09:19:57.899Z,16.88
2019-04-05T09:20:57.883Z,16.88
2019-04-05T09:21:57.885Z,16.88
2019-04-05T09:23:03.954Z,16.88
2019-04-05T09:23:59.367Z,16.88
2019-04-05T09:24:57.837Z,16.88
2019-04-05T09:25:57.827Z,16.88
2019-04-05T09:26:57.817Z,16.88
2019-04-05T09:27:57.840Z,16.88
2019-04-05T09:28:57.796Z,16.88
2019-04-05T09:29:57.911Z,16.88
2019-04-05T09:30:57.778Z,16.88
2019-04-05T09:31:57.760Z,16.88
2019-04-05T09:32:57.754Z,16.88
2019-04-05T09:33:57.766Z,16.88
2019-04-05T09:34:57.724Z,16.88
2019-04-05T09:35:57.723Z,16.88
2019-04-05T09:36:57.711Z,16.88
2019-04-05T09:37:57.695Z,16.88
2019-04-05T09:38:57.683Z,16.88
2019-04-05T09:39:57.688Z,16.88
2019-04-05T09:40:57.662Z,16.88
2019-04-05T09:41:57.653Z,16.88
2019-04-05T09:42:57.644Z,16.88
2019-04-05T09:43:57.625Z,16.88
2019-04-05T09:44:57.654Z,16.88
2019-04-05T09:45:57.605Z,16.88
2019-04-05T09:46:57.592Z,16.88
2019-04-05T09:47:57.580Z,16.88
2019-04-05T09:48:57.573Z,16.88
2019-04-05T09:49:57.561Z,16.88
2019-04-05T09:50:57.560Z,16.88
2019-04-05T09:51:57.538Z,16.88
2019-04-05T09:52:57.527Z,16.88
2019-04-05T09:53:57.508Z,16.88
2019-04-05T09:55:03.890Z,16.88
2019-04-05T09:55:57.501Z,16.88
2019-04-05T09:56:57.495Z,16.88
2019-04-05T09:57:57.463Z,16.88
2019-04-05T09:58:57.453Z,16.88
2019-04-05T09:59:57.448Z,16.88
2019-04-05T10:00:57.441Z,16.88
2019-04-05T10:01:57.433Z,11.25
2019-04-05T10:02:57.408Z,11.25
2019-04-05T10:03:57.399Z,16.88
2019-04-05T10:04:57.397Z,11.25
2019-04-05T10:05:57.387Z,11.25
2019-04-05T10:06:57.380Z,11.25
2019-04-05T10:07:57.389Z,16.88
2019-04-05T10:08:57.347Z,11.25
2019-04-05T10:09:57.334Z,11.25
2019-04-05T10:10:57.317Z,11.25
2019-04-05T10:11:57.307Z,11.25
2019-04-05T10:12:57.298Z,11.25
2019-04-05T10:13:57.291Z,11.25
2019-04-05T10:14:57.270Z,11.25
2019-04-05T10:15:57.264Z,11.25
2019-04-05T10:16:57.250Z,11.25
2019-04-05T10:17:57.235Z,16.88
2019-04-05T10:18:57.238Z,16.88
2019-04-05T10:19:57.254Z,16.88
2019-04-05T10:20:57.204Z,16.88
2019-04-05T10:21:57.190Z,16.88
2019-04-05T10:22:57.179Z,16.88
2019-04-05T10:23:57.176Z,16.88
2019-04-05T10:24:57.161Z,11.25
2019-04-05T10:25:57.190Z,11.25
2019-04-05T10:27:03.230Z,11.25
2019-04-05T10:27:57.124Z,11.25
2019-04-05T10:28:57.120Z,11.25
2019-04-05T10:29:57.099Z,11.25
2019-04-05T10:30:57.092Z,11.25
2019-04-05T10:31:57.112Z,11.25
2019-04-05T10:32:57.069Z,11.25
2019-04-05T10:33:57.065Z,11.25
2019-04-05T10:34:57.051Z,11.25
2019-04-05T10:35:57.034Z,11.25
2019-04-05T10:36:57.067Z,11.25
2019-04-05T10:37:58.505Z,11.25
2019-04-05T10:38:57.788Z,11.25
2019-04-05T10:39:56.996Z,11.25
2019-04-05T10:40:56.972Z,11.25
2019-04-05T10:42:03.321Z,11.25
2019-04-05T10:42:57.969Z,11.25
2019-04-05T10:43:58.389Z,11.25
2019-04-05T10:44:56.932Z,11.25
2019-04-05T10:45:56.927Z,11.25
2019-04-05T10:46:56.906Z,11.25
2019-04-05T10:47:56.892Z,11.25
2019-04-05T10:48:56.919Z,11.25
2019-04-05T10:50:03.032Z,11.25
2019-04-05T10:50:57.857Z,11.25
2019-04-05T10:51:56.850Z,11.25
2019-04-05T10:52:56.838Z,11.25
2019-04-05T10:53:56.826Z,11.25
2019-04-05T10:54:58.077Z,11.25
2019-04-05T10:55:56.809Z,11.25
2019-04-05T10:56:56.795Z,11.25
2019-04-05T10:57:56.784Z,11.25
2019-04-05T10:59:03.153Z,11.25
2019-04-05T10:59:56.759Z,11.25
2019-04-05T11:00:56.770Z,11.25
2019-04-05T11:01:56.738Z,11.25
2019-04-05T11:02:56.731Z,11.25
2019-04-05T11:03:56.711Z,11.25
2019-04-05T11:04:56.703Z,11.25
2019-04-05T11:05:56.729Z,11.25
2019-04-05T11:06:56.678Z,11.25
2019-04-05T11:07:56.668Z,11.25
2019-04-05T11:08:56.658Z,11.25
2019-04-05T11:09:56.642Z,11.25
2019-04-05T11:10:56.632Z,11.25
2019-04-05T11:11:56.694Z,11.25
2019-04-05T11:12:56.621Z,11.25
2019-04-05T11:13:56.609Z,11.25
2019-04-05T11:14:56.594Z,11.25
2019-04-05T11:15:56.584Z,11.25
2019-04-05T11:16:58.626Z,11.25
2019-04-05T11:17:56.571Z,11.25
2019-04-05T11:18:56.539Z,11.25
2019-04-05T11:19:56.526Z,11.25
2019-04-05T11:20:56.518Z,11.25
2019-04-05T11:21:56.509Z,11.25
2019-04-05T11:22:56.566Z,11.25
2019-04-05T11:23:56.485Z,11.25
2019-04-05T11:24:56.469Z,11.25
2019-04-05T11:25:56.466Z,11.25
2019-04-05T11:26:56.455Z,11.25
2019-04-05T11:27:56.434Z,11.25
2019-04-05T11:28:56.443Z,11.25
2019-04-05T11:29:57.865Z,11.25
2019-04-05T11:31:02.517Z,11.25
2019-04-05T11:31:57.655Z,11.25
2019-04-05T11:32:56.378Z,11.25
2019-04-05T11:33:56.370Z,11.25
2019-04-05T11:34:56.377Z,11.25
2019-04-05T11:35:57.944Z,11.25
2019-04-05T11:36:56.332Z,11.25
2019-04-05T11:37:56.327Z,11.25
2019-04-05T11:38:56.312Z,11.25
2019-04-05T11:39:56.299Z,11.25
2019-04-05T11:40:56.336Z,11.25
2019-04-05T11:41:56.278Z,11.25
2019-04-05T11:42:56.267Z,11.25
2019-04-05T11:43:56.258Z,11.25
2019-04-05T11:44:56.245Z,11.25
2019-04-05T11:45:56.236Z,11.25
2019-04-05T11:46:56.263Z,11.25
2019-04-05T11:47:57.703Z,11.25
2019-04-05T11:48:56.197Z,11.25
2019-04-05T11:49:56.189Z,11.25
2019-04-05T11:50:56.184Z,11.25
2019-04-05T11:51:56.163Z,11.25
2019-04-05T11:52:56.308Z,11.25
2019-04-05T11:53:56.138Z,11.25
2019-04-05T11:54:56.128Z,11.25
2019-04-05T11:55:56.113Z,11.25
2019-04-05T11:56:56.109Z,11.25
2019-04-05T11:57:56.098Z,11.25
2019-04-05T11:58:56.096Z,11.25
2019-04-05T11:59:56.091Z,11.25
2019-04-05T12:00:56.058Z,11.25
2019-04-05T12:01:56.046Z,11.25
2019-04-05T12:03:02.132Z,11.25
2019-04-05T12:03:56.025Z,11.25
2019-04-05T12:04:56.019Z,11.25
2019-04-05T12:05:55.999Z,11.25
2019-04-05T12:06:55.992Z,11.25
2019-04-05T12:08:00.657Z,11.25
2019-04-05T12:08:56.978Z,11.25
2019-04-05T12:09:55.961Z,11.25
2019-04-05T12:10:55.944Z,11.25
2019-04-05T12:11:55.938Z,11.25
2019-04-05T12:12:55.921Z,11.25
2019-04-05T12:13:55.980Z,11.25
2019-04-05T12:14:55.939Z,11.25
2019-04-05T12:15:58.197Z,11.25
2019-04-05T12:16:55.878Z,11.25
2019-04-05T12:17:55.865Z,11.25
2019-04-05T12:18:58.704Z,11.25
2019-04-05T12:19:55.841Z,11.25
2019-04-05T12:21:00.304Z,11.25
2019-04-05T12:21:56.817Z,11.25
2019-04-05T12:22:55.808Z,11.25
2019-04-05T12:23:55.800Z,11.25
2019-04-05T12:24:55.791Z,11.25
2019-04-05T12:25:55.797Z,11.25
2019-04-05T12:26:55.764Z,11.25
2019-04-05T12:28:05.652Z,11.25
2019-04-05T12:28:56.748Z,11.25
2019-04-05T12:29:55.734Z,11.25
2019-04-05T12:30:55.716Z,11.25
2019-04-05T12:31:55.747Z,11.25
2019-04-05T12:32:55.699Z,11.25
2019-04-05T12:33:55.689Z,11.25
2019-04-05T12:35:02.060Z,11.25
2019-04-05T12:35:56.675Z,11.25
2019-04-05T12:36:55.658Z,11.25
2019-04-05T12:37:56.203Z,11.25
2019-04-05T12:38:55.626Z,11.25
2019-04-05T12:39:55.692Z,11.25
2019-04-05T12:40:55.606Z,11.25
2019-04-05T12:41:55.601Z,11.25
2019-04-05T12:42:55.591Z,11.25
2019-04-05T12:43:55.612Z,11.25
2019-04-05T12:44:55.558Z,5.62
2019-04-05T12:45:55.554Z,5.62
2019-04-05T12:46:55.538Z,5.62
2019-04-05T12:47:55.528Z,5.62
2019-04-05T12:48:55.517Z,5.62
2019-04-05T12:49:55.549Z,5.62
2019-04-05T12:51:01.087Z,5.62
2019-04-05T12:51:56.485Z,5.62
2019-04-05T12:52:56.840Z,5.62
2019-04-05T12:53:56.728Z,5.62
2019-04-05T12:54:55.454Z,5.62
2019-04-05T12:55:56.976Z,5.62
2019-04-05T12:56:57.893Z,5.62
2019-04-05T12:57:56.210Z,5.62
2019-04-05T12:58:56.063Z,5.62
2019-04-05T12:59:56.445Z,5.62
2019-04-05T13:00:56.094Z,5.62
2019-04-05T13:01:55.411Z,5.62